Ana Sayfa
METAR-TAF:

METAR-TAF

Havaalanları :

Beaumont, Teksas, Amerika Birleşik Devletleri

Enlem: 30-04-13N, Boylam: 094-12-54W, yükseklik: 10 m

Güncel hava durumu gözlemi

Rapor saat 10:15 UTC de 10 dakika önce yapıldı.
Rüzgar kuzeydan 3 kt
Sıcaklık 4°C
Nem 93%
Basınç 1028 hPa
Görüş mesafesi: 16.1 km
Açık gökyüzü

METAR: KBMT 121015Z AUTO 36003KT 10SM CLR 04/03 A3035 RMK AO2 T00430027 TSNO

Saat: 03:25 (10:25 UTC)


TAF: eksik

4.000'den fazla havaalanı için hava durumu gözlemleri ve tahminleri (METAR ve TAF raporları).

Kullanılabilir istasyonlar harita üzerinde sarı ve kırmızı noktalarla gösterilir.

İstasyonun adını görmek için fareyi noktanın üzerinde gezdirin.

Sonrasında hava gözlem ve tahminlerini görmek için tıklayın.

Haritayı değiştirmek için: yaklaştırmak için siyah artı işaretli yeşil düğmeye ve uzaklaştırmak için de eksi işaretli düğmeye hızla tıklayın; bitişik haritalar için yeşil okları kullanın.


METAR-TAF: